Terminal Aerodrome Forecast
Issued by NWS Springfield, MO

Home | Current Version | Previous Version | Text Only | Print | Product List | Glossary On
Versions: 1 2 3 4 5 6 7 8 9 10 11 12 13 14
000
FTUS43 KSGF 011700 RRA
TAFSGF
TAF
KSGF 011738Z 0118/0218 19015G20KT P6SM SCT050
     FM020000 16012KT P6SM BKN050 OVC100 PROB30 0208/0214 5SM -TSRA
      BKN040CB
     FM021400 19015G20KT P6SM -SHRA VCTS BKN050CB=

USA.gov is the U.S. government's official web portal to all federal, state and local government web resources and services.